createdAt,value
2022-08-27T00:00:23.383Z,89.26
2022-08-27T00:03:10.895Z,89.19
2022-08-27T00:05:55.824Z,90.09
2022-08-27T00:08:43.095Z,90.61
2022-08-27T00:11:28.313Z,90.30
2022-08-27T00:14:14.756Z,91.11
2022-08-27T00:16:59.926Z,91.03
2022-08-27T00:19:45.182Z,91.04
2022-08-27T00:22:30.665Z,91.36
2022-08-27T00:25:15.735Z,91.70
2022-08-27T00:28:01.037Z,91.40
2022-08-27T00:30:45.915Z,91.77
2022-08-27T00:33:31.123Z,92.07
2022-08-27T00:36:16.569Z,92.15
2022-08-27T00:39:01.996Z,92.16
2022-08-27T00:41:47.138Z,92.02
2022-08-27T00:44:32.726Z,93.42
2022-08-27T00:47:26.444Z,93.88
2022-08-27T00:50:16.458Z,94.59
2022-08-27T00:53:10.322Z,94.74
2022-08-27T00:56:03.144Z,94.60
2022-08-27T00:58:51.147Z,94.44
2022-08-27T01:01:36.547Z,94.34
2022-08-27T01:04:21.931Z,94.37
2022-08-27T01:07:07.287Z,95.04
2022-08-27T01:09:53.707Z,94.90
2022-08-27T01:12:39.574Z,94.73
2022-08-27T01:15:27.805Z,94.37
2022-08-27T01:18:14.244Z,94.36
2022-08-27T01:21:26.685Z,94.16
2022-08-27T01:24:39.493Z,93.93
2022-08-27T01:27:29.476Z,93.05
2022-08-27T01:30:17.948Z,93.60
2022-08-27T01:33:29.253Z,94.92
2022-08-27T01:36:14.681Z,94.48
2022-08-27T01:39:00.033Z,94.84
2022-08-27T01:41:45.419Z,94.22
2022-08-27T01:44:42.007Z,93.63
2022-08-27T01:47:31.185Z,93.86
2022-08-27T01:50:24.316Z,93.85
2022-08-27T01:53:21.865Z,93.78
2022-08-27T01:56:06.957Z,93.70
2022-08-27T01:58:52.140Z,92.41
2022-08-27T02:01:37.091Z,92.47
2022-08-27T02:04:23.784Z,92.49
2022-08-27T02:07:08.873Z,93.51
2022-08-27T02:09:53.692Z,93.92
2022-08-27T02:12:39.262Z,93.04
2022-08-27T02:15:24.678Z,93.16
2022-08-27T02:18:11.250Z,92.60
2022-08-27T02:20:56.450Z,92.55
2022-08-27T02:23:41.687Z,92.57
2022-08-27T02:26:26.608Z,93.71
2022-08-27T02:29:11.723Z,93.89
2022-08-27T02:31:56.839Z,93.93
2022-08-27T02:34:42.251Z,93.84
2022-08-27T02:37:28.172Z,93.59
2022-08-27T02:40:15.819Z,93.25
2022-08-27T02:43:01.347Z,93.41
2022-08-27T02:45:46.457Z,92.74
2022-08-27T02:48:31.759Z,92.78
2022-08-27T02:51:16.694Z,92.27
2022-08-27T02:54:03.339Z,92.34
2022-08-27T02:56:48.652Z,91.64
2022-08-27T02:59:34.087Z,91.05
2022-08-27T03:02:20.344Z,90.92
2022-08-27T03:05:07.814Z,90.74
2022-08-27T03:07:53.059Z,91.31
2022-08-27T03:10:37.829Z,91.09
2022-08-27T03:13:23.745Z,90.76
2022-08-27T03:16:08.687Z,91.95
2022-08-27T03:18:53.984Z,91.96
2022-08-27T03:21:39.190Z,92.35
2022-08-27T03:24:24.557Z,92.10
2022-08-27T03:27:09.921Z,91.56
2022-08-27T03:29:55.193Z,91.71
2022-08-27T03:32:40.159Z,91.71
2022-08-27T03:35:25.684Z,91.38
2022-08-27T03:38:11.202Z,91.64
2022-08-27T03:40:56.408Z,91.47
2022-08-27T03:43:42.021Z,91.85
2022-08-27T03:46:27.244Z,91.54
2022-08-27T03:49:13.361Z,90.87
2022-08-27T03:51:58.449Z,90.82
2022-08-27T03:54:43.803Z,90.57
2022-08-27T03:57:29.024Z,90.10
2022-08-27T04:00:15.680Z,90.31
2022-08-27T04:03:00.860Z,91.05
2022-08-27T04:05:51.437Z,90.54
2022-08-27T04:08:37.107Z,90.23
2022-08-27T04:11:22.556Z,89.75
2022-08-27T04:14:18.206Z,89.38
2022-08-27T04:17:12.297Z,89.65
2022-08-27T04:19:57.562Z,89.86
2022-08-27T04:22:42.996Z,89.91
2022-08-27T04:25:27.990Z,90.18
2022-08-27T04:28:15.693Z,89.26
2022-08-27T04:31:02.259Z,90.21
2022-08-27T04:33:51.236Z,89.84
2022-08-27T04:36:36.877Z,89.28
2022-08-27T04:39:21.641Z,89.47
2022-08-27T04:42:06.622Z,90.29
2022-08-27T04:44:52.004Z,89.99
2022-08-27T04:47:37.064Z,90.21
2022-08-27T04:50:22.114Z,89.50
2022-08-27T04:53:11.697Z,89.60
2022-08-27T04:55:57.334Z,89.50
2022-08-27T04:58:44.509Z,88.75
2022-08-27T05:01:30.645Z,89.49
2022-08-27T05:04:16.972Z,88.88
2022-08-27T05:07:02.072Z,87.79
2022-08-27T05:09:46.930Z,87.29
2022-08-27T05:12:31.788Z,86.69
2022-08-27T05:15:17.202Z,87.13
2022-08-27T05:18:02.904Z,87.14
2022-08-27T05:20:49.191Z,87.39
2022-08-27T05:23:36.713Z,87.71
2022-08-27T05:26:24.031Z,88.67
2022-08-27T05:29:09.573Z,89.18
2022-08-27T05:31:55.020Z,88.40
2022-08-27T05:34:40.012Z,88.53
2022-08-27T05:37:25.368Z,88.07
2022-08-27T05:40:10.725Z,87.70
2022-08-27T05:42:55.777Z,88.32
2022-08-27T05:45:48.645Z,88.32
2022-08-27T05:48:35.453Z,87.68
2022-08-27T05:51:25.712Z,86.39
2022-08-27T05:54:12.192Z,85.70
2022-08-27T05:56:57.016Z,86.22
2022-08-27T05:59:42.044Z,85.58
2022-08-27T06:02:27.312Z,85.19
2022-08-27T06:05:12.753Z,85.17
2022-08-27T06:07:58.040Z,84.95
2022-08-27T06:10:43.490Z,85.09
2022-08-27T06:13:30.068Z,84.35
2022-08-27T06:16:17.910Z,84.71
2022-08-27T06:19:04.095Z,84.09
2022-08-27T06:22:00.163Z,83.77
2022-08-27T06:24:54.394Z,82.44
2022-08-27T06:27:39.290Z,81.44
2022-08-27T06:30:25.522Z,81.28
2022-08-27T06:33:13.443Z,79.85
2022-08-27T06:36:03.190Z,80.16
2022-08-27T06:38:48.982Z,79.51
2022-08-27T06:41:35.065Z,79.89
2022-08-27T06:44:20.544Z,79.34
2022-08-27T06:47:05.742Z,79.81
2022-08-27T06:49:50.889Z,81.22
2022-08-27T06:52:36.496Z,81.00
2022-08-27T06:55:21.646Z,79.18
2022-08-27T06:58:06.549Z,78.95
2022-08-27T07:00:52.105Z,77.99
2022-08-27T07:03:37.065Z,78.33
2022-08-27T07:06:22.609Z,77.12
2022-08-27T07:09:08.709Z,76.47
2022-08-27T07:11:53.820Z,77.75
2022-08-27T07:14:38.648Z,77.30
2022-08-27T07:17:24.089Z,76.84
2022-08-27T07:20:09.570Z,76.93
2022-08-27T07:22:54.422Z,77.75
2022-08-27T07:25:41.783Z,78.33
2022-08-27T07:28:28.048Z,79.76
2022-08-27T07:31:15.951Z,80.14
2022-08-27T07:34:02.255Z,80.75
2022-08-27T07:36:47.426Z,80.15
2022-08-27T07:39:32.810Z,80.54
2022-08-27T07:42:17.925Z,80.81
2022-08-27T07:45:02.840Z,81.62
2022-08-27T07:47:48.331Z,81.02
2022-08-27T07:50:33.616Z,80.37
2022-08-27T07:53:19.601Z,80.42
2022-08-27T07:56:07.233Z,80.88
2022-08-27T07:58:52.155Z,81.12
2022-08-27T08:01:37.465Z,81.82
2022-08-27T08:04:23.408Z,82.57
2022-08-27T08:07:08.791Z,82.40
2022-08-27T08:09:53.849Z,83.91
2022-08-27T08:12:40.420Z,84.11
2022-08-27T08:15:25.566Z,85.30
2022-08-27T08:18:11.423Z,86.08
2022-08-27T08:21:01.773Z,86.72
2022-08-27T08:23:47.124Z,87.59
2022-08-27T08:26:32.308Z,88.07
2022-08-27T08:29:18.471Z,89.02
2022-08-27T08:32:06.108Z,89.50
2022-08-27T08:34:51.896Z,90.26
2022-08-27T08:37:37.420Z,90.54
2022-08-27T08:40:47.514Z,91.40
2022-08-27T08:43:40.360Z,93.21
2022-08-27T08:46:45.913Z,93.89
2022-08-27T08:50:09.372Z,94.69
2022-08-27T08:53:19.454Z,94.81
2022-08-27T08:56:10.440Z,94.10
2022-08-27T08:59:13.812Z,93.45
2022-08-27T09:01:59.505Z,93.91
2022-08-27T09:04:44.931Z,94.30
2022-08-27T09:07:38.814Z,94.84
2022-08-27T09:10:49.677Z,94.75
2022-08-27T09:13:42.348Z,95.82
2022-08-27T09:16:27.914Z,96.66
2022-08-27T09:19:13.467Z,95.77
2022-08-27T09:22:10.698Z,95.89
2022-08-27T09:25:07.020Z,96.33
2022-08-27T09:27:56.679Z,95.74
2022-08-27T09:30:43.051Z,94.23
2022-08-27T09:33:28.497Z,94.41
2022-08-27T09:36:34.207Z,93.17
2022-08-27T09:39:25.524Z,96.50
2022-08-27T09:42:24.299Z,95.02
2022-08-27T09:45:12.099Z,96.02
2022-08-27T09:48:31.046Z,97.64
2022-08-27T09:51:23.195Z,96.22
2022-08-27T09:54:08.448Z,97.29
2022-08-27T09:56:53.616Z,97.51
2022-08-27T09:59:51.248Z,96.24
2022-08-27T10:02:36.159Z,96.11
2022-08-27T10:05:29.786Z,96.35
2022-08-27T10:08:24.122Z,96.37
2022-08-27T10:11:20.567Z,94.42
2022-08-27T10:14:20.875Z,94.87
2022-08-27T10:17:05.770Z,93.48
2022-08-27T10:20:30.138Z,93.71
2022-08-27T10:23:15.666Z,93.40
2022-08-27T10:26:15.685Z,92.29
2022-08-27T10:29:20.804Z,91.64
2022-08-27T10:32:24.433Z,92.07
2022-08-27T10:35:21.716Z,91.42
2022-08-27T10:38:10.863Z,91.78
2022-08-27T10:41:07.261Z,92.16
2022-08-27T10:44:11.510Z,91.15
2022-08-27T10:47:21.041Z,88.85
2022-08-27T10:50:26.055Z,89.06
2022-08-27T10:53:25.555Z,88.75
2022-08-27T10:56:18.906Z,88.86
2022-08-27T10:59:18.416Z,90.16
2022-08-27T11:02:19.927Z,89.57
2022-08-27T11:05:32.583Z,90.91
2022-08-27T11:08:44.320Z,90.50
2022-08-27T11:15:03.158Z,87.94
2022-08-27T11:18:24.833Z,87.25
2022-08-27T11:21:21.071Z,87.22
2022-08-27T11:24:40.298Z,86.27
2022-08-27T11:27:29.097Z,86.92
2022-08-27T11:30:35.651Z,86.94
2022-08-27T11:33:56.505Z,85.89
2022-08-27T11:37:05.874Z,86.66
2022-08-27T11:40:16.017Z,86.77
2022-08-27T11:43:23.474Z,85.12
2022-08-27T11:46:09.553Z,85.54
2022-08-27T11:49:03.116Z,85.01
2022-08-27T11:51:58.271Z,85.29
2022-08-27T11:55:10.873Z,84.58
2022-08-27T11:58:22.342Z,84.76
2022-08-27T12:01:28.977Z,84.82
2022-08-27T12:04:36.950Z,84.83
2022-08-27T12:07:32.971Z,85.14
2022-08-27T12:10:29.668Z,84.49
2022-08-27T12:13:23.536Z,83.95
2022-08-27T12:16:14.937Z,81.82
2022-08-27T12:19:09.215Z,82.08
2022-08-27T12:22:39.633Z,80.15
2022-08-27T12:25:24.956Z,79.74
2022-08-27T12:28:10.262Z,80.07
2022-08-27T12:30:55.914Z,80.14
2022-08-27T12:33:46.583Z,79.55
2022-08-27T12:36:32.540Z,79.14
2022-08-27T12:39:26.461Z,78.94
2022-08-27T12:42:17.013Z,79.16
2022-08-27T12:45:02.007Z,78.79
2022-08-27T12:47:50.616Z,79.02
2022-08-27T12:50:36.377Z,78.30
2022-08-27T12:53:28.466Z,76.41
2022-08-27T12:56:24.156Z,76.51
2022-08-27T12:59:24.579Z,76.38
2022-08-27T13:02:12.989Z,75.71
2022-08-27T13:05:03.843Z,75.51
2022-08-27T13:07:55.338Z,76.13
2022-08-27T13:10:40.393Z,74.17
2022-08-27T13:13:25.676Z,74.30
2022-08-27T13:16:11.547Z,74.30
2022-08-27T13:18:56.644Z,73.56
2022-08-27T13:21:48.571Z,73.28
2022-08-27T13:24:44.355Z,72.61
2022-08-27T13:27:32.368Z,71.76
2022-08-27T13:30:35.131Z,72.15
2022-08-27T13:33:25.213Z,71.07
2022-08-27T13:36:13.041Z,71.84
2022-08-27T13:38:58.709Z,71.73
2022-08-27T13:41:47.503Z,71.93
2022-08-27T13:44:40.680Z,70.87
2022-08-27T13:47:29.338Z,70.04
2022-08-27T13:50:24.542Z,69.30
2022-08-27T13:53:12.092Z,69.80
2022-08-27T13:55:58.621Z,68.77
2022-08-27T13:58:43.943Z,69.26
2022-08-27T14:01:30.933Z,70.40
2022-08-27T14:04:24.914Z,70.04
2022-08-27T14:07:12.739Z,70.07
2022-08-27T14:10:08.580Z,68.94
2022-08-27T14:13:05.467Z,69.45
2022-08-27T14:15:54.321Z,71.30
2022-08-27T14:18:58.755Z,70.70
2022-08-27T14:21:44.235Z,69.42
2022-08-27T14:24:29.515Z,70.90
2022-08-27T14:27:15.524Z,68.21
2022-08-27T14:30:00.899Z,67.18
2022-08-27T14:32:46.357Z,67.09
2022-08-27T14:35:36.351Z,67.50
2022-08-27T14:38:23.588Z,66.75
2022-08-27T14:41:09.299Z,68.20
2022-08-27T14:43:54.298Z,68.26
2022-08-27T14:46:41.525Z,68.35
2022-08-27T14:49:33.274Z,68.85
2022-08-27T14:52:18.637Z,69.88
2022-08-27T14:55:06.827Z,70.55
2022-08-27T14:57:55.295Z,69.79
2022-08-27T15:00:41.589Z,68.97
2022-08-27T15:03:26.583Z,69.05
2022-08-27T15:06:11.961Z,69.41
2022-08-27T15:08:57.383Z,69.61
2022-08-27T15:11:43.386Z,68.94
2022-08-27T15:14:32.465Z,68.30
2022-08-27T15:17:33.461Z,69.59
2022-08-27T15:20:20.760Z,69.83
2022-08-27T15:23:06.193Z,68.92
2022-08-27T15:25:51.438Z,67.79
2022-08-27T15:28:36.805Z,68.50
2022-08-27T15:31:22.978Z,70.08
2022-08-27T15:34:09.129Z,69.23
2022-08-27T15:36:54.410Z,69.98
2022-08-27T15:39:39.416Z,69.59
2022-08-27T15:42:24.504Z,68.94
2022-08-27T15:45:12.105Z,70.47
2022-08-27T15:47:58.487Z,69.31
2022-08-27T15:50:43.485Z,69.99
2022-08-27T15:53:28.992Z,68.38
2022-08-27T15:56:14.026Z,69.17
2022-08-27T15:58:59.453Z,67.82
2022-08-27T16:01:45.179Z,68.03
2022-08-27T16:04:30.477Z,68.56
2022-08-27T16:07:16.636Z,68.07
2022-08-27T16:10:07.074Z,69.65
2022-08-27T16:12:52.388Z,68.24
2022-08-27T16:15:38.865Z,70.03
2022-08-27T16:18:28.251Z,71.24
2022-08-27T16:21:13.371Z,71.38
2022-08-27T16:23:58.501Z,70.10
2022-08-27T16:26:43.925Z,70.89
2022-08-27T16:29:28.700Z,68.85
2022-08-27T16:32:16.813Z,70.17
2022-08-27T16:35:04.386Z,70.34
2022-08-27T16:37:49.884Z,69.19
2022-08-27T16:40:40.273Z,71.66
2022-08-27T16:43:28.197Z,69.84
2022-08-27T16:46:13.347Z,69.50
2022-08-27T16:49:01.115Z,71.51
2022-08-27T16:51:47.187Z,71.36
2022-08-27T16:54:32.347Z,70.96
2022-08-27T16:57:17.939Z,71.56
2022-08-27T17:00:04.928Z,70.90
2022-08-27T17:02:50.288Z,70.85
2022-08-27T17:05:35.498Z,71.89
2022-08-27T17:08:26.244Z,71.64
2022-08-27T17:11:25.317Z,71.79
2022-08-27T17:14:11.029Z,72.60
2022-08-27T17:16:56.296Z,72.79
2022-08-27T17:19:41.713Z,72.19
2022-08-27T17:22:26.832Z,72.23
2022-08-27T17:25:11.851Z,72.00
2022-08-27T17:28:00.181Z,71.83
2022-08-27T17:30:45.680Z,71.89
2022-08-27T17:33:38.932Z,71.67
2022-08-27T17:36:24.795Z,72.51
2022-08-27T17:39:13.769Z,72.48
2022-08-27T17:41:59.181Z,72.40
2022-08-27T17:44:44.432Z,72.35
2022-08-27T17:47:29.530Z,74.31
2022-08-27T17:50:14.951Z,72.60
2022-08-27T17:53:00.361Z,72.76
2022-08-27T17:55:45.226Z,72.65
2022-08-27T17:58:30.823Z,71.70
2022-08-27T18:01:28.455Z,73.06
2022-08-27T18:04:13.758Z,71.84
2022-08-27T18:06:58.792Z,71.57
2022-08-27T18:09:44.305Z,71.27
2022-08-27T18:12:29.671Z,70.80
2022-08-27T18:15:19.734Z,71.27
2022-08-27T18:18:06.038Z,72.41
2022-08-27T18:20:51.561Z,72.92
2022-08-27T18:23:38.032Z,72.18
2022-08-27T18:26:27.562Z,73.36
2022-08-27T18:29:14.632Z,73.30
2022-08-27T18:32:00.059Z,72.66
2022-08-27T18:34:46.060Z,72.29
2022-08-27T18:37:30.987Z,73.74
2022-08-27T18:40:18.606Z,74.53
2022-08-27T18:43:05.234Z,75.56
2022-08-27T18:45:50.642Z,76.16
2022-08-27T18:48:36.175Z,75.26
2022-08-27T18:51:21.218Z,75.11
2022-08-27T18:54:06.607Z,73.31
2022-08-27T18:56:51.877Z,73.01
2022-08-27T18:59:36.781Z,73.75
2022-08-27T19:02:22.017Z,75.51
2022-08-27T19:05:08.497Z,74.99
2022-08-27T19:07:55.118Z,75.31
2022-08-27T19:10:40.053Z,75.82
2022-08-27T19:13:25.290Z,74.81
2022-08-27T19:16:20.811Z,74.61
2022-08-27T19:19:05.995Z,74.75
2022-08-27T19:21:51.895Z,73.35
2022-08-27T19:24:39.982Z,74.74
2022-08-27T19:27:27.558Z,74.84
2022-08-27T19:30:14.411Z,73.36
2022-08-27T19:32:59.865Z,74.56
2022-08-27T19:35:44.907Z,73.68
2022-08-27T19:38:31.438Z,73.70
2022-08-27T19:41:16.781Z,73.92
2022-08-27T19:44:02.290Z,74.61
2022-08-27T19:46:51.088Z,74.37
2022-08-27T19:49:37.034Z,74.74
2022-08-27T19:52:23.041Z,74.12
2022-08-27T19:55:14.003Z,74.08
2022-08-27T19:58:00.058Z,74.03
2022-08-27T20:00:45.882Z,74.35
2022-08-27T20:03:31.156Z,75.33
2022-08-27T20:06:16.861Z,75.32
2022-08-27T20:09:02.123Z,75.11
2022-08-27T20:11:48.088Z,76.10
2022-08-27T20:14:33.224Z,74.09
2022-08-27T20:17:23.140Z,74.27
2022-08-27T20:20:11.522Z,75.03
2022-08-27T20:22:57.520Z,74.78
2022-08-27T20:25:42.744Z,74.35
2022-08-27T20:28:44.911Z,73.82
2022-08-27T20:31:30.714Z,74.07
2022-08-27T20:34:16.035Z,74.27
2022-08-27T20:37:02.942Z,73.58
2022-08-27T20:39:47.992Z,74.94
2022-08-27T20:42:32.957Z,73.83
2022-08-27T20:45:19.203Z,74.80
2022-08-27T20:48:05.225Z,74.65
2022-08-27T20:50:50.310Z,73.58
2022-08-27T20:53:35.486Z,73.57
2022-08-27T20:56:21.086Z,73.67
2022-08-27T20:59:06.076Z,74.03
2022-08-27T21:01:51.362Z,73.75
2022-08-27T21:04:42.906Z,73.89
2022-08-27T21:07:27.830Z,73.64
2022-08-27T21:10:13.121Z,73.30
2022-08-27T21:12:59.269Z,73.35
2022-08-27T21:15:46.486Z,73.48
2022-08-27T21:18:31.600Z,73.10
2022-08-27T21:21:16.629Z,72.89
2022-08-27T21:24:02.189Z,72.80
2022-08-27T21:26:48.189Z,73.79
2022-08-27T21:29:33.466Z,73.96
2022-08-27T21:32:18.753Z,73.65
2022-08-27T21:35:03.936Z,74.26
2022-08-27T21:37:49.229Z,74.67
2022-08-27T21:40:34.685Z,75.00
2022-08-27T21:43:19.949Z,75.27
2022-08-27T21:46:05.679Z,75.28
2022-08-27T21:48:58.710Z,75.13
2022-08-27T21:51:44.363Z,75.25
2022-08-27T21:54:31.834Z,74.92
2022-08-27T21:57:16.892Z,74.96
2022-08-27T22:00:10.535Z,75.46
2022-08-27T22:02:56.666Z,74.80
2022-08-27T22:05:43.750Z,74.84
2022-08-27T22:08:29.036Z,74.62
2022-08-27T22:11:14.619Z,74.85
2022-08-27T22:13:59.778Z,74.46
2022-08-27T22:16:44.720Z,74.92
2022-08-27T22:19:30.730Z,74.98
2022-08-27T22:22:15.864Z,74.01
2022-08-27T22:25:01.196Z,74.21
2022-08-27T22:27:46.217Z,74.20
2022-08-27T22:30:31.816Z,73.77
2022-08-27T22:33:17.044Z,74.53
2022-08-27T22:36:02.354Z,74.70
2022-08-27T22:38:47.731Z,74.33
2022-08-27T22:41:33.384Z,74.37
2022-08-27T22:44:20.111Z,74.34
2022-08-27T22:47:05.445Z,73.87
2022-08-27T22:49:52.863Z,73.99
2022-08-27T22:52:39.018Z,74.15
2022-08-27T22:55:24.257Z,74.47
2022-08-27T22:58:09.395Z,74.10
2022-08-27T23:00:54.716Z,73.83
2022-08-27T23:03:40.372Z,73.59
2022-08-27T23:06:25.342Z,74.53
2022-08-27T23:09:10.645Z,75.06
2022-08-27T23:11:56.225Z,75.26
2022-08-27T23:14:41.338Z,75.35
2022-08-27T23:17:26.868Z,75.26
2022-08-27T23:20:14.919Z,75.29
2022-08-27T23:22:59.845Z,75.53
2022-08-27T23:25:45.313Z,75.38
2022-08-27T23:28:30.227Z,75.90
2022-08-27T23:31:16.054Z,75.86
2022-08-27T23:34:01.018Z,76.94
2022-08-27T23:36:47.574Z,76.91
2022-08-27T23:39:32.829Z,76.48
2022-08-27T23:42:18.164Z,76.67
2022-08-27T23:45:07.899Z,77.04
2022-08-27T23:47:53.802Z,76.83
2022-08-27T23:50:39.868Z,76.40
2022-08-27T23:53:25.364Z,76.73
2022-08-27T23:56:10.799Z,77.65
2022-08-27T23:58:55.578Z,77.06
